sensor_id;sensor_type;location;lat;lon;timestamp;temperature;humidity
53880;DHT22;39791;53.184;5.486;2022-12-18T00:00:28;-1.00;99.90
53880;DHT22;39791;53.184;5.486;2022-12-18T00:02:55;-0.90;99.90
53880;DHT22;39791;53.184;5.486;2022-12-18T00:05:21;0.50;1.00
53880;DHT22;39791;53.184;5.486;2022-12-18T00:07:46;0.40;1.00
53880;DHT22;39791;53.184;5.486;2022-12-18T00:10:12;-0.60;14.60
53880;DHT22;39791;53.184;5.486;2022-12-18T00:12:37;-0.40;99.20
53880;DHT22;39791;53.184;5.486;2022-12-18T00:15:03;0.80;99.90
53880;DHT22;39791;53.184;5.486;2022-12-18T00:17:29;0.80;99.90
53880;DHT22;39791;53.184;5.486;2022-12-18T00:19:54;-0.50;99.90
53880;DHT22;39791;53.184;5.486;2022-12-18T00:22:20;0.80;99.90
53880;DHT22;39791;53.184;5.486;2022-12-18T00:24:45;-0.50;99.90
53880;DHT22;39791;53.184;5.486;2022-12-18T00:27:11;-0.20;99.90
53880;DHT22;39791;53.184;5.486;2022-12-18T00:29:36;-0.40;1.00
53880;DHT22;39791;53.184;5.486;2022-12-18T00:32:02;0.70;55.70
53880;DHT22;39791;53.184;5.486;2022-12-18T00:34:27;1.00;53.80
53880;DHT22;39791;53.184;5.486;2022-12-18T00:36:53;0.90;62.90
53880;DHT22;39791;53.184;5.486;2022-12-18T00:39:18;0.70;55.50
53880;DHT22;39791;53.184;5.486;2022-12-18T00:41:44;0.40;60.90
53880;DHT22;39791;53.184;5.486;2022-12-18T00:44:28;-0.10;40.90
53880;DHT22;39791;53.184;5.486;2022-12-18T00:46:54;0.30;53.20
53880;DHT22;39791;53.184;5.486;2022-12-18T00:49:20;-0.50;27.00
53880;DHT22;39791;53.184;5.486;2022-12-18T00:51:46;-0.10;33.90
53880;DHT22;39791;53.184;5.486;2022-12-18T00:54:11;-0.50;60.80
53880;DHT22;39791;53.184;5.486;2022-12-18T00:56:38;0.80;99.90
53880;DHT22;39791;53.184;5.486;2022-12-18T00:59:04;0.90;99.90
53880;DHT22;39791;53.184;5.486;2022-12-18T01:01:30;0.80;99.90
53880;DHT22;39791;53.184;5.486;2022-12-18T01:04:00;0.60;99.90
53880;DHT22;39791;53.184;5.486;2022-12-18T01:06:26;0.90;99.90
53880;DHT22;39791;53.184;5.486;2022-12-18T01:08:51;-0.40;99.90
53880;DHT22;39791;53.184;5.486;2022-12-18T01:11:19;0.40;1.00
53880;DHT22;39791;53.184;5.486;2022-12-18T01:13:45;0.90;1.00
53880;DHT22;39791;53.184;5.486;2022-12-18T01:16:13;-0.50;1.00
53880;DHT22;39791;53.184;5.486;2022-12-18T01:18:39;0.10;1.00
53880;DHT22;39791;53.184;5.486;2022-12-18T01:21:10;-0.50;99.90
53880;DHT22;39791;53.184;5.486;2022-12-18T01:23:37;-0.30;99.90
53880;DHT22;39791;53.184;5.486;2022-12-18T01:26:16;-0.20;99.90
53880;DHT22;39791;53.184;5.486;2022-12-18T01:28:42;0.00;1.00
53880;DHT22;39791;53.184;5.486;2022-12-18T01:31:30;0.40;1.00
53880;DHT22;39791;53.184;5.486;2022-12-18T01:33:56;-0.60;1.00
53880;DHT22;39791;53.184;5.486;2022-12-18T01:36:25;-0.30;1.00
53880;DHT22;39791;53.184;5.486;2022-12-18T01:38:52;0.10;1.00
53880;DHT22;39791;53.184;5.486;2022-12-18T01:41:20;-0.70;1.00
53880;DHT22;39791;53.184;5.486;2022-12-18T01:46:18;-0.40;99.90
53880;DHT22;39791;53.184;5.486;2022-12-18T01:48:47;-0.70;99.90
53880;DHT22;39791;53.184;5.486;2022-12-18T01:51:13;0.50;99.90
53880;DHT22;39791;53.184;5.486;2022-12-18T01:53:40;0.20;99.90
53880;DHT22;39791;53.184;5.486;2022-12-18T01:56:07;-0.80;99.90
53880;DHT22;39791;53.184;5.486;2022-12-18T01:58:58;0.60;99.90
53880;DHT22;39791;53.184;5.486;2022-12-18T02:01:25;0.20;1.00
53880;DHT22;39791;53.184;5.486;2022-12-18T02:03:51;0.40;99.90
53880;DHT22;39791;53.184;5.486;2022-12-18T02:06:32;0.60;99.90
53880;DHT22;39791;53.184;5.486;2022-12-18T02:09:12;0.30;1.00
53880;DHT22;39791;53.184;5.486;2022-12-18T02:11:59;-0.70;99.90
53880;DHT22;39791;53.184;5.486;2022-12-18T02:15:02;-0.30;99.90
53880;DHT22;39791;53.184;5.486;2022-12-18T02:17:41;0.20;99.90
53880;DHT22;39791;53.184;5.486;2022-12-18T02:20:21;-0.10;99.90
53880;DHT22;39791;53.184;5.486;2022-12-18T02:23:20;-0.70;1.00
53880;DHT22;39791;53.184;5.486;2022-12-18T02:28:44;0.40;1.00
53880;DHT22;39791;53.184;5.486;2022-12-18T02:31:15;0.20;1.00
53880;DHT22;39791;53.184;5.486;2022-12-18T02:33:43;-0.70;1.00
53880;DHT22;39791;53.184;5.486;2022-12-18T02:36:11;-1.00;1.00
53880;DHT22;39791;53.184;5.486;2022-12-18T02:38:38;0.20;1.00
53880;DHT22;39791;53.184;5.486;2022-12-18T02:41:05;-0.60;1.00
53880;DHT22;39791;53.184;5.486;2022-12-18T02:43:31;0.00;1.00
53880;DHT22;39791;53.184;5.486;2022-12-18T02:45:59;-0.90;1.00
53880;DHT22;39791;53.184;5.486;2022-12-18T02:48:33;-0.20;1.00
53880;DHT22;39791;53.184;5.486;2022-12-18T02:51:08;-0.90;1.00
53880;DHT22;39791;53.184;5.486;2022-12-18T02:53:47;-0.50;87.00
53880;DHT22;39791;53.184;5.486;2022-12-18T02:56:35;0.30;99.90
53880;DHT22;39791;53.184;5.486;2022-12-18T02:59:12;0.40;99.90
53880;DHT22;39791;53.184;5.486;2022-12-18T03:01:46;0.20;99.90
53880;DHT22;39791;53.184;5.486;2022-12-18T03:04:32;-1.10;99.90
53880;DHT22;39791;53.184;5.486;2022-12-18T03:07:10;0.50;99.90
53880;DHT22;39791;53.184;5.486;2022-12-18T03:09:40;0.50;1.00
53880;DHT22;39791;53.184;5.486;2022-12-18T03:12:21;0.50;1.00
53880;DHT22;39791;53.184;5.486;2022-12-18T03:14:54;-0.40;1.00
53880;DHT22;39791;53.184;5.486;2022-12-18T03:17:23;-1.20;1.00
53880;DHT22;39791;53.184;5.486;2022-12-18T03:19:52;-0.70;1.00
53880;DHT22;39791;53.184;5.486;2022-12-18T03:22:20;-1.00;95.20
53880;DHT22;39791;53.184;5.486;2022-12-18T03:24:48;0.50;97.00
53880;DHT22;39791;53.184;5.486;2022-12-18T03:27:17;-1.10;99.90
53880;DHT22;39791;53.184;5.486;2022-12-18T03:29:55;-0.30;99.90
53880;DHT22;39791;53.184;5.486;2022-12-18T03:32:36;-1.10;99.90
53880;DHT22;39791;53.184;5.486;2022-12-18T03:35:04;-1.10;99.90
53880;DHT22;39791;53.184;5.486;2022-12-18T03:37:31;-0.90;99.90
53880;DHT22;39791;53.184;5.486;2022-12-18T03:39:56;-0.70;99.90
53880;DHT22;39791;53.184;5.486;2022-12-18T03:42:29;-1.20;99.90
53880;DHT22;39791;53.184;5.486;2022-12-18T03:47:52;-1.20;99.90
53880;DHT22;39791;53.184;5.486;2022-12-18T03:50:31;0.10;99.90
53880;DHT22;39791;53.184;5.486;2022-12-18T03:55:36;-1.30;99.90
53880;DHT22;39791;53.184;5.486;2022-12-18T03:58:04;-1.40;99.90
53880;DHT22;39791;53.184;5.486;2022-12-18T04:00:33;-0.30;99.90
53880;DHT22;39791;53.184;5.486;2022-12-18T04:03:01;-0.80;99.90
53880;DHT22;39791;53.184;5.486;2022-12-18T04:05:27;-0.20;98.50
53880;DHT22;39791;53.184;5.486;2022-12-18T04:07:54;-0.40;76.20
53880;DHT22;39791;53.184;5.486;2022-12-18T04:10:22;-0.70;25.80
53880;DHT22;39791;53.184;5.486;2022-12-18T04:12:47;-0.50;1.00
53880;DHT22;39791;53.184;5.486;2022-12-18T04:15:13;-0.50;1.00
53880;DHT22;39791;53.184;5.486;2022-12-18T04:17:46;-0.80;1.00
53880;DHT22;39791;53.184;5.486;2022-12-18T04:20:13;-0.10;1.00
53880;DHT22;39791;53.184;5.486;2022-12-18T04:22:38;-0.60;99.90
53880;DHT22;39791;53.184;5.486;2022-12-18T04:25:04;-1.70;99.90
53880;DHT22;39791;53.184;5.486;2022-12-18T04:27:30;-2.00;26.00
53880;DHT22;39791;53.184;5.486;2022-12-18T04:29:55;-1.30;1.00
53880;DHT22;39791;53.184;5.486;2022-12-18T04:32:21;-1.50;99.90
53880;DHT22;39791;53.184;5.486;2022-12-18T04:34:47;-2.00;99.90
53880;DHT22;39791;53.184;5.486;2022-12-18T04:37:12;-1.20;99.90
53880;DHT22;39791;53.184;5.486;2022-12-18T04:39:38;-2.10;62.90
53880;DHT22;39791;53.184;5.486;2022-12-18T04:42:04;-2.20;4.40
53880;DHT22;39791;53.184;5.486;2022-12-18T04:44:30;-2.70;1.00
53880;DHT22;39791;53.184;5.486;2022-12-18T04:46:55;-1.80;1.00
53880;DHT22;39791;53.184;5.486;2022-12-18T04:49:21;-1.30;10.20
53880;DHT22;39791;53.184;5.486;2022-12-18T04:51:47;-1.10;47.40
53880;DHT22;39791;53.184;5.486;2022-12-18T04:54:12;-1.50;96.70
53880;DHT22;39791;53.184;5.486;2022-12-18T04:56:38;-2.00;99.90
53880;DHT22;39791;53.184;5.486;2022-12-18T04:59:03;-1.50;99.90
53880;DHT22;39791;53.184;5.486;2022-12-18T05:01:29;-2.50;99.90
53880;DHT22;39791;53.184;5.486;2022-12-18T05:03:54;-2.30;99.90
53880;DHT22;39791;53.184;5.486;2022-12-18T05:06:20;-2.50;99.90
53880;DHT22;39791;53.184;5.486;2022-12-18T05:08:45;-2.00;99.90
53880;DHT22;39791;53.184;5.486;2022-12-18T05:11:13;-2.10;99.90
53880;DHT22;39791;53.184;5.486;2022-12-18T05:13:42;-2.20;99.90
53880;DHT22;39791;53.184;5.486;2022-12-18T05:16:08;-2.00;99.90
53880;DHT22;39791;53.184;5.486;2022-12-18T05:18:35;-2.50;99.90
53880;DHT22;39791;53.184;5.486;2022-12-18T05:21:01;-2.00;94.40
53880;DHT22;39791;53.184;5.486;2022-12-18T05:23:27;-2.90;35.30
53880;DHT22;39791;53.184;5.486;2022-12-18T05:25:55;-1.60;99.90
53880;DHT22;39791;53.184;5.486;2022-12-18T05:28:22;-1.80;99.90
53880;DHT22;39791;53.184;5.486;2022-12-18T05:30:52;-1.80;9.50
53880;DHT22;39791;53.184;5.486;2022-12-18T05:33:19;-1.60;1.00
53880;DHT22;39791;53.184;5.486;2022-12-18T05:35:59;-2.00;1.00
53880;DHT22;39791;53.184;5.486;2022-12-18T05:38:29;-3.00;99.90
53880;DHT22;39791;53.184;5.486;2022-12-18T05:40:56;-2.20;99.90
53880;DHT22;39791;53.184;5.486;2022-12-18T05:43:22;-2.80;99.90
53880;DHT22;39791;53.184;5.486;2022-12-18T05:45:49;-2.60;81.30
53880;DHT22;39791;53.184;5.486;2022-12-18T05:48:15;-2.40;1.00
53880;DHT22;39791;53.184;5.486;2022-12-18T05:50:42;-2.70;1.00
53880;DHT22;39791;53.184;5.486;2022-12-18T05:53:10;-3.30;99.90
53880;DHT22;39791;53.184;5.486;2022-12-18T05:55:37;-2.60;99.90
53880;DHT22;39791;53.184;5.486;2022-12-18T05:58:04;-3.20;1.00
53880;DHT22;39791;53.184;5.486;2022-12-18T06:00:31;-2.80;1.00
53880;DHT22;39791;53.184;5.486;2022-12-18T06:02:57;-2.90;1.00
53880;DHT22;39791;53.184;5.486;2022-12-18T06:05:23;-3.00;99.90
53880;DHT22;39791;53.184;5.486;2022-12-18T06:07:48;-3.00;99.90
53880;DHT22;39791;53.184;5.486;2022-12-18T06:10:14;-3.00;99.90
53880;DHT22;39791;53.184;5.486;2022-12-18T06:12:39;-2.70;99.90
53880;DHT22;39791;53.184;5.486;2022-12-18T06:15:05;-3.50;99.90
53880;DHT22;39791;53.184;5.486;2022-12-18T06:17:32;-3.20;99.90
53880;DHT22;39791;53.184;5.486;2022-12-18T06:19:58;-3.10;98.70
53880;DHT22;39791;53.184;5.486;2022-12-18T06:22:24;-2.80;56.20
53880;DHT22;39791;53.184;5.486;2022-12-18T06:24:50;-2.70;4.70
53880;DHT22;39791;53.184;5.486;2022-12-18T06:27:15;-3.30;1.00
53880;DHT22;39791;53.184;5.486;2022-12-18T06:29:41;-2.70;1.00
53880;DHT22;39791;53.184;5.486;2022-12-18T06:32:07;-2.80;1.00
53880;DHT22;39791;53.184;5.486;2022-12-18T06:34:33;-3.50;99.90
53880;DHT22;39791;53.184;5.486;2022-12-18T06:36:58;-3.50;99.90
53880;DHT22;39791;53.184;5.486;2022-12-18T06:39:27;-3.10;99.90
53880;DHT22;39791;53.184;5.486;2022-12-18T06:41:52;-3.40;99.90
53880;DHT22;39791;53.184;5.486;2022-12-18T06:44:18;-2.90;99.90
53880;DHT22;39791;53.184;5.486;2022-12-18T06:46:44;-2.50;99.90
53880;DHT22;39791;53.184;5.486;2022-12-18T06:49:09;-2.70;99.90
53880;DHT22;39791;53.184;5.486;2022-12-18T06:51:35;-2.30;99.90
53880;DHT22;39791;53.184;5.486;2022-12-18T06:54:01;-3.40;99.90
53880;DHT22;39791;53.184;5.486;2022-12-18T06:56:26;-3.30;81.10
53880;DHT22;39791;53.184;5.486;2022-12-18T06:58:52;-3.40;19.10
53880;DHT22;39791;53.184;5.486;2022-12-18T07:01:18;-3.50;1.00
53880;DHT22;39791;53.184;5.486;2022-12-18T07:03:43;-2.90;1.00
53880;DHT22;39791;53.184;5.486;2022-12-18T07:06:18;-2.90;1.00
53880;DHT22;39791;53.184;5.486;2022-12-18T07:08:44;-3.20;1.00
53880;DHT22;39791;53.184;5.486;2022-12-18T07:11:10;-3.40;99.90
53880;DHT22;39791;53.184;5.486;2022-12-18T07:13:36;-2.70;99.90
53880;DHT22;39791;53.184;5.486;2022-12-18T07:16:10;-3.00;99.90
53880;DHT22;39791;53.184;5.486;2022-12-18T07:18:36;-3.20;99.90
53880;DHT22;39791;53.184;5.486;2022-12-18T07:21:07;-3.40;99.90
53880;DHT22;39791;53.184;5.486;2022-12-18T07:23:34;-3.50;99.90
53880;DHT22;39791;53.184;5.486;2022-12-18T07:26:10;-3.50;99.90
53880;DHT22;39791;53.184;5.486;2022-12-18T07:28:37;-3.50;99.90
53880;DHT22;39791;53.184;5.486;2022-12-18T07:31:17;-2.40;99.90
53880;DHT22;39791;53.184;5.486;2022-12-18T07:33:45;-3.20;99.90
53880;DHT22;39791;53.184;5.486;2022-12-18T07:36:11;-3.40;48.10
53880;DHT22;39791;53.184;5.486;2022-12-18T07:38:37;-3.40;1.00
53880;DHT22;39791;53.184;5.486;2022-12-18T07:41:05;-3.40;1.00
53880;DHT22;39791;53.184;5.486;2022-12-18T07:43:31;-3.20;1.00
53880;DHT22;39791;53.184;5.486;2022-12-18T07:45:57;-3.30;1.00
53880;DHT22;39791;53.184;5.486;2022-12-18T07:48:23;-3.50;99.90
53880;DHT22;39791;53.184;5.486;2022-12-18T07:50:48;-3.00;99.90
53880;DHT22;39791;53.184;5.486;2022-12-18T07:53:14;-2.60;99.90
53880;DHT22;39791;53.184;5.486;2022-12-18T07:55:40;-3.30;99.90
53880;DHT22;39791;53.184;5.486;2022-12-18T07:58:07;-2.90;99.90
53880;DHT22;39791;53.184;5.486;2022-12-18T08:00:33;-3.30;99.90
53880;DHT22;39791;53.184;5.486;2022-12-18T08:02:59;-3.00;99.90
53880;DHT22;39791;53.184;5.486;2022-12-18T08:05:25;-3.10;99.90
53880;DHT22;39791;53.184;5.486;2022-12-18T08:07:51;-2.90;99.90
53880;DHT22;39791;53.184;5.486;2022-12-18T08:10:17;-3.10;99.90
53880;DHT22;39791;53.184;5.486;2022-12-18T08:12:42;-2.90;99.90
53880;DHT22;39791;53.184;5.486;2022-12-18T08:15:08;-3.50;99.90
53880;DHT22;39791;53.184;5.486;2022-12-18T08:17:34;-3.40;95.20
53880;DHT22;39791;53.184;5.486;2022-12-18T08:19:59;-3.10;51.90
53880;DHT22;39791;53.184;5.486;2022-12-18T08:22:25;-3.20;18.10
53880;DHT22;39791;53.184;5.486;2022-12-18T08:24:51;-2.90;1.00
53880;DHT22;39791;53.184;5.486;2022-12-18T08:27:16;-2.80;1.00
53880;DHT22;39791;53.184;5.486;2022-12-18T08:29:42;-2.40;1.00
53880;DHT22;39791;53.184;5.486;2022-12-18T08:32:07;-3.00;1.00
53880;DHT22;39791;53.184;5.486;2022-12-18T08:34:33;-2.80;1.00
53880;DHT22;39791;53.184;5.486;2022-12-18T08:36:58;-3.30;1.00
53880;DHT22;39791;53.184;5.486;2022-12-18T08:39:24;-2.80;1.00
53880;DHT22;39791;53.184;5.486;2022-12-18T08:41:50;-3.20;1.00
53880;DHT22;39791;53.184;5.486;2022-12-18T08:44:34;-2.60;99.90
53880;DHT22;39791;53.184;5.486;2022-12-18T08:47:02;-2.50;99.90
53880;DHT22;39791;53.184;5.486;2022-12-18T08:49:28;-1.90;99.90
53880;DHT22;39791;53.184;5.486;2022-12-18T08:51:55;-2.60;99.90
53880;DHT22;39791;53.184;5.486;2022-12-18T08:54:22;-2.80;99.90
53880;DHT22;39791;53.184;5.486;2022-12-18T08:56:48;-2.50;99.90
53880;DHT22;39791;53.184;5.486;2022-12-18T08:59:15;-2.40;99.90
53880;DHT22;39791;53.184;5.486;2022-12-18T09:01:41;-2.70;99.90
53880;DHT22;39791;53.184;5.486;2022-12-18T09:04:08;-2.40;99.90
53880;DHT22;39791;53.184;5.486;2022-12-18T09:06:34;-1.60;99.90
53880;DHT22;39791;53.184;5.486;2022-12-18T09:08:59;-2.20;99.90
53880;DHT22;39791;53.184;5.486;2022-12-18T09:11:27;-2.50;99.90
53880;DHT22;39791;53.184;5.486;2022-12-18T09:13:54;-2.30;99.90
53880;DHT22;39791;53.184;5.486;2022-12-18T09:16:20;-1.90;99.90
53880;DHT22;39791;53.184;5.486;2022-12-18T09:18:47;-1.80;99.90
53880;DHT22;39791;53.184;5.486;2022-12-18T09:21:18;-2.10;99.90
53880;DHT22;39791;53.184;5.486;2022-12-18T09:23:44;-1.70;99.90
53880;DHT22;39791;53.184;5.486;2022-12-18T09:26:09;-1.70;97.10
53880;DHT22;39791;53.184;5.486;2022-12-18T09:28:35;-1.40;79.20
53880;DHT22;39791;53.184;5.486;2022-12-18T09:31:06;-1.60;48.40
53880;DHT22;39791;53.184;5.486;2022-12-18T09:33:34;-1.70;11.90
53880;DHT22;39791;53.184;5.486;2022-12-18T09:36:01;-1.70;1.00
53880;DHT22;39791;53.184;5.486;2022-12-18T09:38:27;-1.40;1.00
53880;DHT22;39791;53.184;5.486;2022-12-18T09:40:58;-1.50;1.00
53880;DHT22;39791;53.184;5.486;2022-12-18T09:43:41;-1.40;1.00
53880;DHT22;39791;53.184;5.486;2022-12-18T09:46:11;-1.80;1.00
53880;DHT22;39791;53.184;5.486;2022-12-18T09:48:46;-1.70;1.00
53880;DHT22;39791;53.184;5.486;2022-12-18T09:51:14;-1.10;1.00
53880;DHT22;39791;53.184;5.486;2022-12-18T09:53:42;-1.30;1.00
53880;DHT22;39791;53.184;5.486;2022-12-18T09:56:16;-1.20;1.00
53880;DHT22;39791;53.184;5.486;2022-12-18T09:58:55;-0.70;99.90
53880;DHT22;39791;53.184;5.486;2022-12-18T10:01:23;-0.80;99.90
53880;DHT22;39791;53.184;5.486;2022-12-18T10:03:49;-0.90;99.90
53880;DHT22;39791;53.184;5.486;2022-12-18T10:07:03;-0.80;99.90
53880;DHT22;39791;53.184;5.486;2022-12-18T10:09:28;-0.70;99.90
53880;DHT22;39791;53.184;5.486;2022-12-18T10:12:08;-0.90;99.90
53880;DHT22;39791;53.184;5.486;2022-12-18T10:17:47;-0.70;99.90
53880;DHT22;39791;53.184;5.486;2022-12-18T10:26:12;-0.40;62.90
53880;DHT22;39791;53.184;5.486;2022-12-18T10:28:40;-0.20;19.80
53880;DHT22;39791;53.184;5.486;2022-12-18T10:31:07;-0.40;1.00
53880;DHT22;39791;53.184;5.486;2022-12-18T10:33:38;-0.30;1.00
53880;DHT22;39791;53.184;5.486;2022-12-18T10:36:04;-0.40;1.00
53880;DHT22;39791;53.184;5.486;2022-12-18T10:38:32;-0.20;1.00
53880;DHT22;39791;53.184;5.486;2022-12-18T10:41:00;-0.20;1.00
53880;DHT22;39791;53.184;5.486;2022-12-18T10:46:21;-0.10;1.00
53880;DHT22;39791;53.184;5.486;2022-12-18T10:51:23;0.00;1.00
53880;DHT22;39791;53.184;5.486;2022-12-18T10:56:20;0.10;99.90
53880;DHT22;39791;53.184;5.486;2022-12-18T10:58:56;0.30;99.90
53880;DHT22;39791;53.184;5.486;2022-12-18T11:01:22;0.10;99.90
53880;DHT22;39791;53.184;5.486;2022-12-18T11:06:22;0.10;99.90
53880;DHT22;39791;53.184;5.486;2022-12-18T11:09:04;0.10;99.90
53880;DHT22;39791;53.184;5.486;2022-12-18T11:11:32;0.50;99.90
53880;DHT22;39791;53.184;5.486;2022-12-18T11:14:13;0.30;99.90
53880;DHT22;39791;53.184;5.486;2022-12-18T11:16:46;0.30;99.90
53880;DHT22;39791;53.184;5.486;2022-12-18T11:21:50;0.40;99.90
53880;DHT22;39791;53.184;5.486;2022-12-18T11:24:27;0.40;99.90
53880;DHT22;39791;53.184;5.486;2022-12-18T11:26:55;0.30;99.90
53880;DHT22;39791;53.184;5.486;2022-12-18T11:29:28;0.30;99.90
53880;DHT22;39791;53.184;5.486;2022-12-18T11:34:42;0.20;99.90
53880;DHT22;39791;53.184;5.486;2022-12-18T11:37:12;0.10;93.00
53880;DHT22;39791;53.184;5.486;2022-12-18T11:39:52;0.40;89.30
53880;DHT22;39791;53.184;5.486;2022-12-18T11:42:30;0.30;77.50
53880;DHT22;39791;53.184;5.486;2022-12-18T11:50:33;0.60;11.30
53880;DHT22;39791;53.184;5.486;2022-12-18T11:53:04;0.50;1.30
53880;DHT22;39791;53.184;5.486;2022-12-18T12:04:38;0.80;1.00
53880;DHT22;39791;53.184;5.486;2022-12-18T12:07:20;0.70;1.00
53880;DHT22;39791;53.184;5.486;2022-12-18T12:10:15;0.70;1.00
53880;DHT22;39791;53.184;5.486;2022-12-18T12:18:43;0.70;1.00
53880;DHT22;39791;53.184;5.486;2022-12-18T12:26:12;0.80;1.00
53880;DHT22;39791;53.184;5.486;2022-12-18T12:31:45;0.80;1.00
53880;DHT22;39791;53.184;5.486;2022-12-18T12:39:26;0.90;1.00
53880;DHT22;39791;53.184;5.486;2022-12-18T12:41:54;0.80;1.00
53880;DHT22;39791;53.184;5.486;2022-12-18T12:44:50;0.80;1.00
53880;DHT22;39791;53.184;5.486;2022-12-18T12:47:33;0.90;1.00
53880;DHT22;39791;53.184;5.486;2022-12-18T12:50:04;1.20;1.00
53880;DHT22;39791;53.184;5.486;2022-12-18T12:52:40;1.00;1.00
53880;DHT22;39791;53.184;5.486;2022-12-18T12:55:16;0.90;1.00
53880;DHT22;39791;53.184;5.486;2022-12-18T13:03:42;1.00;1.00
53880;DHT22;39791;53.184;5.486;2022-12-18T13:06:29;0.80;1.00
53880;DHT22;39791;53.184;5.486;2022-12-18T13:09:00;0.80;99.90
53880;DHT22;39791;53.184;5.486;2022-12-18T13:11:46;0.80;99.90
53880;DHT22;39791;53.184;5.486;2022-12-18T13:14:33;1.00;99.90
53880;DHT22;39791;53.184;5.486;2022-12-18T13:19:44;0.90;99.90
53880;DHT22;39791;53.184;5.486;2022-12-18T13:22:24;1.00;99.90
53880;DHT22;39791;53.184;5.486;2022-12-18T13:24:54;1.00;99.90
53880;DHT22;39791;53.184;5.486;2022-12-18T13:38:34;1.10;99.90
53880;DHT22;39791;53.184;5.486;2022-12-18T13:41:45;1.10;99.90
53880;DHT22;39791;53.184;5.486;2022-12-18T13:43:50;1.10;99.90
53880;DHT22;39791;53.184;5.486;2022-12-18T13:46:27;1.00;99.90
53880;DHT22;39791;53.184;5.486;2022-12-18T13:49:03;0.90;99.90
53880;DHT22;39791;53.184;5.486;2022-12-18T13:51:33;0.90;99.90
53880;DHT22;39791;53.184;5.486;2022-12-18T13:54:06;0.80;99.90
53880;DHT22;39791;53.184;5.486;2022-12-18T13:56:43;0.80;99.90
53880;DHT22;39791;53.184;5.486;2022-12-18T13:59:21;0.80;99.90
53880;DHT22;39791;53.184;5.486;2022-12-18T14:06:44;0.80;99.90
53880;DHT22;39791;53.184;5.486;2022-12-18T14:09:14;0.80;99.90
53880;DHT22;39791;53.184;5.486;2022-12-18T14:11:45;0.80;99.90
53880;DHT22;39791;53.184;5.486;2022-12-18T14:14:14;0.80;99.90
53880;DHT22;39791;53.184;5.486;2022-12-18T14:16:41;0.80;99.90
53880;DHT22;39791;53.184;5.486;2022-12-18T14:19:12;0.80;99.90
53880;DHT22;39791;53.184;5.486;2022-12-18T14:21:39;0.80;99.90
53880;DHT22;39791;53.184;5.486;2022-12-18T14:24:27;0.80;99.90
53880;DHT22;39791;53.184;5.486;2022-12-18T14:26:53;0.90;99.90
53880;DHT22;39791;53.184;5.486;2022-12-18T14:29:30;0.70;99.90
53880;DHT22;39791;53.184;5.486;2022-12-18T14:34:31;0.70;99.90
53880;DHT22;39791;53.184;5.486;2022-12-18T14:36:57;1.10;99.90
53880;DHT22;39791;53.184;5.486;2022-12-18T14:39:22;0.80;99.90
53880;DHT22;39791;53.184;5.486;2022-12-18T14:41:51;0.80;99.90
53880;DHT22;39791;53.184;5.486;2022-12-18T14:44:16;0.90;99.90
53880;DHT22;39791;53.184;5.486;2022-12-18T14:46:46;0.80;99.90
53880;DHT22;39791;53.184;5.486;2022-12-18T14:49:31;0.70;99.90
53880;DHT22;39791;53.184;5.486;2022-12-18T14:51:59;0.70;99.90
53880;DHT22;39791;53.184;5.486;2022-12-18T14:54:26;0.70;99.90
53880;DHT22;39791;53.184;5.486;2022-12-18T14:59:30;0.50;99.90
53880;DHT22;39791;53.184;5.486;2022-12-18T15:02:21;0.50;99.90
53880;DHT22;39791;53.184;5.486;2022-12-18T15:04:53;0.50;99.90
53880;DHT22;39791;53.184;5.486;2022-12-18T15:07:24;0.50;99.90
53880;DHT22;39791;53.184;5.486;2022-12-18T15:10:10;0.60;99.90
53880;DHT22;39791;53.184;5.486;2022-12-18T15:13:06;0.60;99.90
53880;DHT22;39791;53.184;5.486;2022-12-18T15:20:49;0.70;99.90
53880;DHT22;39791;53.184;5.486;2022-12-18T15:23:25;0.70;99.90
53880;DHT22;39791;53.184;5.486;2022-12-18T15:25:59;0.70;99.90
53880;DHT22;39791;53.184;5.486;2022-12-18T15:28:26;0.60;99.90
53880;DHT22;39791;53.184;5.486;2022-12-18T15:33:47;0.50;99.90
53880;DHT22;39791;53.184;5.486;2022-12-18T15:36:25;1.10;99.90
53880;DHT22;39791;53.184;5.486;2022-12-18T15:38:51;0.80;99.90
53880;DHT22;39791;53.184;5.486;2022-12-18T15:41:19;0.80;99.90
53880;DHT22;39791;53.184;5.486;2022-12-18T15:43:46;0.80;99.90
53880;DHT22;39791;53.184;5.486;2022-12-18T15:46:14;0.80;99.90
53880;DHT22;39791;53.184;5.486;2022-12-18T15:48:42;0.90;99.90
53880;DHT22;39791;53.184;5.486;2022-12-18T15:51:17;0.80;99.90
53880;DHT22;39791;53.184;5.486;2022-12-18T15:53:43;0.80;99.90
53880;DHT22;39791;53.184;5.486;2022-12-18T15:56:14;0.60;99.90
53880;DHT22;39791;53.184;5.486;2022-12-18T15:59:00;0.60;99.90
53880;DHT22;39791;53.184;5.486;2022-12-18T16:01:28;0.70;99.90
53880;DHT22;39791;53.184;5.486;2022-12-18T16:03:54;0.80;99.90
53880;DHT22;39791;53.184;5.486;2022-12-18T16:06:21;0.90;99.90
53880;DHT22;39791;53.184;5.486;2022-12-18T16:08:46;0.80;99.90
53880;DHT22;39791;53.184;5.486;2022-12-18T16:11:32;1.00;99.90
53880;DHT22;39791;53.184;5.486;2022-12-18T16:14:12;1.00;99.90
53880;DHT22;39791;53.184;5.486;2022-12-18T16:16:38;1.00;99.90
53880;DHT22;39791;53.184;5.486;2022-12-18T16:19:04;1.10;99.90
53880;DHT22;39791;53.184;5.486;2022-12-18T16:21:29;1.00;99.90
53880;DHT22;39791;53.184;5.486;2022-12-18T16:23:55;1.00;99.90
53880;DHT22;39791;53.184;5.486;2022-12-18T16:26:21;1.00;99.90
53880;DHT22;39791;53.184;5.486;2022-12-18T16:28:46;1.00;99.90
53880;DHT22;39791;53.184;5.486;2022-12-18T16:31:12;1.30;99.90
53880;DHT22;39791;53.184;5.486;2022-12-18T16:33:37;1.30;99.90
53880;DHT22;39791;53.184;5.486;2022-12-18T16:36:03;1.30;99.90
53880;DHT22;39791;53.184;5.486;2022-12-18T16:38:29;1.30;99.90
53880;DHT22;39791;53.184;5.486;2022-12-18T16:40:54;1.20;99.90
53880;DHT22;39791;53.184;5.486;2022-12-18T16:43:38;1.30;99.90
53880;DHT22;39791;53.184;5.486;2022-12-18T16:46:04;1.20;99.90
53880;DHT22;39791;53.184;5.486;2022-12-18T16:48:30;1.20;99.90
53880;DHT22;39791;53.184;5.486;2022-12-18T16:51:03;1.30;99.90
53880;DHT22;39791;53.184;5.486;2022-12-18T16:53:32;1.30;99.90
53880;DHT22;39791;53.184;5.486;2022-12-18T16:55:58;1.20;99.90
53880;DHT22;39791;53.184;5.486;2022-12-18T16:58:24;1.30;99.90
53880;DHT22;39791;53.184;5.486;2022-12-18T17:00:49;1.30;99.90
53880;DHT22;39791;53.184;5.486;2022-12-18T17:03:15;1.30;99.90
53880;DHT22;39791;53.184;5.486;2022-12-18T17:05:40;1.30;99.90
53880;DHT22;39791;53.184;5.486;2022-12-18T17:08:06;1.40;99.90
53880;DHT22;39791;53.184;5.486;2022-12-18T17:10:34;1.30;99.90
53880;DHT22;39791;53.184;5.486;2022-12-18T17:13:00;1.40;99.90
53880;DHT22;39791;53.184;5.486;2022-12-18T17:15:25;1.40;99.90
53880;DHT22;39791;53.184;5.486;2022-12-18T17:17:51;1.30;99.90
53880;DHT22;39791;53.184;5.486;2022-12-18T17:20:17;1.30;99.90
53880;DHT22;39791;53.184;5.486;2022-12-18T17:22:42;1.30;99.90
53880;DHT22;39791;53.184;5.486;2022-12-18T17:25:08;1.70;99.90
53880;DHT22;39791;53.184;5.486;2022-12-18T17:27:33;1.50;99.90
53880;DHT22;39791;53.184;5.486;2022-12-18T17:29:59;1.50;99.90
53880;DHT22;39791;53.184;5.486;2022-12-18T17:32:24;1.50;99.90
53880;DHT22;39791;53.184;5.486;2022-12-18T17:34:50;1.50;99.90
53880;DHT22;39791;53.184;5.486;2022-12-18T17:37:16;1.50;99.90
53880;DHT22;39791;53.184;5.486;2022-12-18T17:39:41;1.40;99.90
53880;DHT22;39791;53.184;5.486;2022-12-18T17:42:07;1.40;99.90
53880;DHT22;39791;53.184;5.486;2022-12-18T17:44:35;1.50;99.90